createdAt,value
2018-02-16T00:00:01.859Z,14.20
2018-02-16T00:01:01.810Z,15.10
2018-02-16T00:02:01.804Z,12.80
2018-02-16T00:03:01.800Z,13.80
2018-02-16T00:04:01.800Z,11.60
2018-02-16T00:05:01.828Z,14.20
2018-02-16T00:06:01.785Z,10.40
2018-02-16T00:07:01.783Z,14.10
2018-02-16T00:08:01.777Z,12.90
2018-02-16T00:09:01.769Z,15.00
2018-02-16T00:10:01.806Z,12.00
2018-02-16T00:11:01.789Z,11.40
2018-02-16T00:12:01.762Z,5.70
2018-02-16T00:13:01.754Z,11.70
2018-02-16T00:14:01.754Z,11.00
2018-02-16T00:15:01.782Z,10.80
2018-02-16T00:16:01.739Z,13.70
2018-02-16T00:17:01.741Z,11.40
2018-02-16T00:18:01.731Z,12.50
2018-02-16T00:19:01.732Z,12.20
2018-02-16T00:20:01.767Z,10.70
2018-02-16T00:21:01.716Z,10.30
2018-02-16T00:22:01.712Z,9.80
2018-02-16T00:23:01.711Z,11.00
2018-02-16T00:24:01.705Z,11.40
2018-02-16T00:25:01.758Z,9.90
2018-02-16T00:26:01.698Z,11.30
2018-02-16T00:27:01.732Z,11.50
2018-02-16T00:28:01.788Z,10.50
2018-02-16T00:29:01.683Z,7.60
2018-02-16T00:30:01.676Z,9.50
2018-02-16T00:31:01.715Z,10.10
2018-02-16T00:32:01.670Z,10.70
2018-02-16T00:33:01.672Z,12.00
2018-02-16T00:34:01.657Z,13.20
2018-02-16T00:35:01.653Z,10.50
2018-02-16T00:36:01.692Z,11.10
2018-02-16T00:37:01.647Z,10.30
2018-02-16T00:38:01.648Z,12.10
2018-02-16T00:39:01.637Z,10.70
2018-02-16T00:40:01.631Z,12.60
2018-02-16T00:41:01.666Z,12.10
2018-02-16T00:42:01.622Z,11.60
2018-02-16T00:43:01.633Z,9.50
2018-02-16T00:44:01.618Z,12.40
2018-02-16T00:45:01.612Z,12.10
2018-02-16T00:46:01.649Z,13.40
2018-02-16T00:47:01.605Z,13.50
2018-02-16T00:48:01.605Z,14.10
2018-02-16T00:49:01.602Z,12.40
2018-02-16T00:50:01.607Z,12.40
2018-02-16T00:51:01.630Z,8.30
2018-02-16T00:52:01.583Z,11.70
2018-02-16T00:53:01.579Z,12.40
2018-02-16T00:54:01.572Z,10.10
2018-02-16T00:55:01.598Z,14.50
2018-02-16T00:56:01.602Z,12.00
2018-02-16T00:57:01.559Z,9.20
2018-02-16T00:58:01.575Z,13.00
2018-02-16T00:59:01.556Z,13.20
2018-02-16T01:00:01.545Z,12.50
2018-02-16T01:01:01.579Z,13.50
2018-02-16T01:02:01.538Z,14.20
2018-02-16T01:03:01.536Z,12.80
2018-02-16T01:04:01.535Z,14.30
2018-02-16T01:05:01.582Z,12.80
2018-02-16T01:06:01.574Z,14.40
2018-02-16T01:07:01.520Z,15.30
2018-02-16T01:08:01.508Z,14.90
2018-02-16T01:09:01.546Z,15.80
2018-02-16T01:10:01.499Z,13.40
2018-02-16T01:11:01.496Z,11.30
2018-02-16T01:12:01.535Z,14.30
2018-02-16T01:13:01.484Z,13.70
2018-02-16T01:14:01.480Z,14.80
2018-02-16T01:15:01.476Z,15.50
2018-02-16T01:16:01.475Z,14.20
2018-02-16T01:17:01.535Z,10.10
2018-02-16T01:18:01.475Z,13.80
2018-02-16T01:19:01.498Z,15.60
2018-02-16T01:20:01.456Z,15.50
2018-02-16T01:21:01.449Z,16.90
2018-02-16T01:22:01.443Z,16.20
2018-02-16T01:23:01.484Z,16.60
2018-02-16T01:24:01.437Z,16.80
2018-02-16T01:25:01.437Z,15.80
2018-02-16T01:26:01.433Z,18.20
2018-02-16T01:27:01.422Z,16.40
2018-02-16T01:28:01.475Z,17.40
2018-02-16T01:29:01.414Z,17.50
2018-02-16T01:30:01.411Z,15.80
2018-02-16T01:31:01.413Z,17.00
2018-02-16T01:32:01.400Z,17.50
2018-02-16T01:33:01.453Z,15.90
2018-02-16T01:34:01.390Z,18.10
2018-02-16T01:35:01.390Z,14.90
2018-02-16T01:36:01.378Z,16.10
2018-02-16T01:37:01.379Z,15.80
2018-02-16T01:38:01.412Z,16.20
2018-02-16T01:39:01.407Z,16.40
2018-02-16T01:40:01.365Z,17.50
2018-02-16T01:41:02.296Z,19.40
2018-02-16T01:42:01.353Z,19.90
2018-02-16T01:43:01.352Z,20.90
2018-02-16T01:44:01.441Z,23.20
2018-02-16T01:45:01.340Z,22.70
2018-02-16T01:46:01.339Z,21.90
2018-02-16T01:47:01.367Z,25.10
2018-02-16T01:48:01.326Z,23.70
2018-02-16T01:49:01.319Z,23.10
2018-02-16T01:50:01.357Z,24.20
2018-02-16T01:51:01.312Z,24.30
2018-02-16T01:52:01.307Z,23.10
2018-02-16T01:53:01.307Z,24.10
2018-02-16T01:54:01.296Z,20.70
2018-02-16T01:55:01.337Z,22.40
2018-02-16T01:56:01.291Z,25.40
2018-02-16T01:57:01.284Z,20.20
2018-02-16T01:58:01.283Z,21.50
2018-02-16T01:59:01.273Z,22.40
2018-02-16T02:00:01.306Z,19.60
2018-02-16T02:01:01.266Z,20.70
2018-02-16T02:02:01.261Z,21.40
2018-02-16T02:03:01.254Z,22.60
2018-02-16T02:04:01.250Z,17.80
2018-02-16T02:05:01.301Z,24.30
2018-02-16T02:06:01.280Z,21.70
2018-02-16T02:07:01.241Z,24.70
2018-02-16T02:08:01.244Z,24.00
2018-02-16T02:09:01.633Z,24.00
2018-02-16T02:10:01.227Z,21.70
2018-02-16T02:11:01.258Z,23.10
2018-02-16T02:12:01.216Z,23.40
2018-02-16T02:13:01.211Z,22.80
2018-02-16T02:14:01.203Z,22.50
2018-02-16T02:15:01.198Z,21.30
2018-02-16T02:16:01.240Z,22.70
2018-02-16T02:17:01.190Z,22.30
2018-02-16T02:18:01.183Z,22.10
2018-02-16T02:19:01.178Z,22.40
2018-02-16T02:20:01.211Z,21.60
2018-02-16T02:21:01.175Z,21.70
2018-02-16T02:22:01.164Z,19.90
2018-02-16T02:23:01.175Z,22.60
2018-02-16T02:24:01.156Z,23.30
2018-02-16T02:25:01.206Z,22.30
2018-02-16T02:26:01.147Z,23.10
2018-02-16T02:27:01.144Z,21.60
2018-02-16T02:28:01.136Z,19.80
2018-02-16T02:29:01.133Z,22.50
2018-02-16T02:30:01.171Z,20.60
2018-02-16T02:31:01.132Z,20.20
2018-02-16T02:32:01.118Z,20.00
2018-02-16T02:33:01.115Z,21.30
2018-02-16T02:34:01.121Z,22.40
2018-02-16T02:35:01.143Z,22.10
2018-02-16T02:36:01.102Z,20.90
2018-02-16T02:37:01.098Z,22.00
2018-02-16T02:38:01.093Z,21.60
2018-02-16T02:39:01.086Z,22.50
2018-02-16T02:40:01.141Z,21.50
2018-02-16T02:41:01.078Z,20.80
2018-02-16T02:42:01.076Z,21.60
2018-02-16T02:43:01.072Z,21.20
2018-02-16T02:44:01.108Z,21.90
2018-02-16T02:45:01.066Z,18.80
2018-02-16T02:46:01.094Z,20.70
2018-02-16T02:47:01.052Z,21.00
2018-02-16T02:48:01.045Z,21.40
2018-02-16T02:49:01.064Z,20.00
2018-02-16T02:50:01.076Z,22.30
2018-02-16T02:51:01.048Z,24.20
2018-02-16T02:52:01.032Z,24.90
2018-02-16T02:53:01.024Z,21.40
2018-02-16T02:54:01.022Z,20.00
2018-02-16T02:55:01.051Z,20.90
2018-02-16T02:56:01.014Z,21.80
2018-02-16T02:57:01.005Z,20.80
2018-02-16T02:58:01.000Z,21.50
2018-02-16T02:59:00.996Z,21.60
2018-02-16T03:00:01.041Z,22.70
2018-02-16T03:01:00.984Z,21.70
2018-02-16T03:02:00.979Z,22.30
2018-02-16T03:03:00.980Z,22.00
2018-02-16T03:04:00.973Z,22.70
2018-02-16T03:05:01.021Z,22.60
2018-02-16T03:06:00.965Z,24.20
2018-02-16T03:07:00.961Z,22.50
2018-02-16T03:08:00.956Z,21.80
2018-02-16T03:09:00.945Z,23.70
2018-02-16T03:10:00.947Z,23.60
2018-02-16T03:11:00.982Z,26.80
2018-02-16T03:12:00.937Z,23.90
2018-02-16T03:13:00.930Z,27.20
2018-02-16T03:14:00.925Z,25.70
2018-02-16T03:15:00.920Z,24.60
2018-02-16T03:16:00.969Z,26.70
2018-02-16T03:17:00.914Z,28.40
2018-02-16T03:18:00.909Z,26.80
2018-02-16T03:19:00.903Z,21.40
2018-02-16T03:20:00.898Z,21.50
2018-02-16T03:21:00.896Z,25.10
2018-02-16T03:22:00.930Z,21.00
2018-02-16T03:23:00.888Z,20.60
2018-02-16T03:24:00.879Z,22.40
2018-02-16T03:25:00.873Z,21.40
2018-02-16T03:26:00.870Z,18.30
2018-02-16T03:27:00.904Z,20.00
2018-02-16T03:28:00.860Z,21.20
2018-02-16T03:29:00.858Z,18.00
2018-02-16T03:30:00.848Z,18.60
2018-02-16T03:31:00.848Z,18.80
2018-02-16T03:32:00.882Z,17.90
2018-02-16T03:33:00.839Z,19.30
2018-02-16T03:34:00.838Z,19.10
2018-02-16T03:35:00.828Z,19.40
2018-02-16T03:36:00.824Z,19.40
2018-02-16T03:37:00.874Z,44.10
2018-02-16T03:38:00.816Z,19.40
2018-02-16T03:39:00.811Z,21.60
2018-02-16T03:40:00.805Z,18.90
2018-02-16T03:41:00.805Z,18.00
2018-02-16T03:42:00.839Z,18.00
2018-02-16T03:43:00.829Z,18.20
2018-02-16T03:44:00.790Z,17.50
2018-02-16T03:45:00.783Z,16.20
2018-02-16T03:46:00.779Z,16.00
2018-02-16T03:47:00.772Z,14.30
2018-02-16T03:48:00.823Z,15.00
2018-02-16T03:49:00.762Z,16.00
2018-02-16T03:50:00.763Z,16.40
2018-02-16T03:51:00.797Z,23.30
2018-02-16T03:52:00.748Z,21.00
2018-02-16T03:53:00.744Z,19.40
2018-02-16T03:54:00.777Z,16.50
2018-02-16T03:55:00.740Z,15.80
2018-02-16T03:56:00.731Z,18.20
2018-02-16T03:57:00.728Z,17.20
2018-02-16T03:58:00.726Z,23.30
2018-02-16T03:59:00.761Z,18.70
2018-02-16T04:00:00.726Z,19.50
2018-02-16T04:01:00.710Z,21.00
2018-02-16T04:02:00.705Z,16.90
2018-02-16T04:03:00.698Z,16.90
2018-02-16T04:04:00.735Z,16.20
2018-02-16T04:05:00.691Z,15.00
2018-02-16T04:06:00.687Z,15.40
2018-02-16T04:07:00.681Z,15.30
2018-02-16T04:08:00.676Z,17.70
2018-02-16T04:09:00.727Z,15.40
2018-02-16T04:10:00.708Z,11.20
2018-02-16T04:11:00.663Z,16.50
2018-02-16T04:12:00.658Z,16.90
2018-02-16T04:13:00.653Z,17.60
2018-02-16T04:14:00.650Z,15.40
2018-02-16T04:15:00.704Z,9.40
2018-02-16T04:16:00.593Z,18.00
2018-02-16T04:17:00.601Z,18.20
2018-02-16T04:18:00.583Z,15.90
2018-02-16T04:19:00.594Z,13.80
2018-02-16T04:20:00.618Z,17.70
2018-02-16T04:21:00.611Z,17.40
2018-02-16T04:22:00.575Z,15.10
2018-02-16T04:23:00.568Z,17.40
2018-02-16T04:24:00.563Z,16.10
2018-02-16T04:25:00.551Z,16.30
2018-02-16T04:26:00.582Z,16.50
2018-02-16T04:27:00.551Z,15.90
2018-02-16T04:28:00.545Z,15.40
2018-02-16T04:29:00.532Z,18.20
2018-02-16T04:30:00.544Z,15.60
2018-02-16T04:31:00.567Z,15.70
2018-02-16T04:32:00.529Z,16.50
2018-02-16T04:33:00.515Z,15.20
2018-02-16T04:34:00.521Z,16.10
2018-02-16T04:35:00.552Z,15.70
2018-02-16T04:36:00.540Z,17.20
2018-02-16T04:37:00.507Z,16.60
2018-02-16T04:38:00.493Z,15.90
2018-02-16T04:39:00.495Z,18.40
2018-02-16T04:40:00.492Z,16.20
2018-02-16T04:41:00.535Z,16.70
2018-02-16T04:42:00.938Z,16.60
2018-02-16T04:43:00.475Z,18.20
2018-02-16T04:44:00.503Z,18.00
2018-02-16T04:45:00.460Z,19.00
2018-02-16T04:46:00.468Z,18.40
2018-02-16T04:47:00.500Z,18.80
2018-02-16T04:48:00.629Z,19.70
2018-02-16T04:49:00.445Z,19.90
2018-02-16T04:50:00.436Z,21.00
2018-02-16T04:51:00.437Z,20.70
2018-02-16T04:52:00.466Z,21.00
2018-02-16T04:53:00.437Z,20.70
2018-02-16T04:54:00.422Z,19.30
2018-02-16T04:55:00.426Z,18.90
2018-02-16T04:56:00.412Z,18.80
2018-02-16T04:57:00.456Z,18.90
2018-02-16T04:58:00.402Z,17.90
2018-02-16T04:59:00.406Z,18.80
2018-02-16T05:00:00.404Z,19.10
2018-02-16T05:01:00.823Z,20.90
2018-02-16T05:02:00.428Z,18.90
2018-02-16T05:03:00.381Z,19.70
2018-02-16T05:04:00.383Z,16.60
2018-02-16T05:05:00.381Z,17.70
2018-02-16T05:06:00.367Z,23.70
2018-02-16T05:07:00.416Z,22.00
2018-02-16T05:08:00.366Z,22.40
2018-02-16T05:09:00.365Z,29.80
2018-02-16T05:10:00.362Z,25.80
2018-02-16T05:11:00.345Z,22.30
2018-02-16T05:12:00.391Z,26.70
2018-02-16T05:13:00.336Z,24.90
2018-02-16T05:14:00.357Z,21.90
2018-02-16T05:15:00.369Z,17.00
2018-02-16T05:16:00.350Z,15.50
2018-02-16T05:17:00.436Z,18.50
2018-02-16T05:18:00.400Z,16.10
2018-02-16T05:19:00.372Z,20.70
2018-02-16T05:20:00.321Z,19.30
2018-02-16T05:21:00.380Z,20.50
2018-02-16T05:22:00.360Z,22.70
2018-02-16T05:23:00.301Z,20.80
2018-02-16T05:24:00.366Z,19.60
2018-02-16T05:25:00.405Z,22.70
2018-02-16T05:26:00.380Z,22.30
2018-02-16T05:27:00.299Z,22.20
2018-02-16T05:28:00.268Z,21.20
2018-02-16T05:29:00.304Z,25.30
2018-02-16T05:30:00.261Z,24.30
2018-02-16T05:31:00.265Z,23.30
2018-02-16T05:32:00.261Z,33.30
2018-02-16T05:33:00.249Z,32.60
2018-02-16T05:34:00.289Z,32.90
2018-02-16T05:35:00.239Z,25.60
2018-02-16T05:36:00.242Z,27.00
2018-02-16T05:37:00.273Z,24.00
2018-02-16T05:38:00.224Z,24.10
2018-02-16T05:39:00.262Z,24.60
2018-02-16T05:40:00.224Z,24.60
2018-02-16T05:41:00.211Z,24.90
2018-02-16T05:42:00.217Z,26.80
2018-02-16T05:43:00.210Z,31.80
2018-02-16T05:44:00.248Z,29.20
2018-02-16T05:45:00.191Z,30.70
2018-02-16T05:46:00.196Z,28.90
2018-02-16T05:47:00.196Z,34.40
2018-02-16T05:48:00.180Z,33.10
2018-02-16T05:49:00.219Z,33.80
2018-02-16T05:50:00.181Z,30.40
2018-02-16T05:51:00.172Z,36.80
2018-02-16T05:52:01.042Z,37.60
2018-02-16T05:53:00.153Z,33.70
2018-02-16T05:54:00.195Z,33.70
2018-02-16T05:55:00.154Z,38.00
2018-02-16T05:56:00.152Z,32.50
2018-02-16T05:57:00.173Z,34.90
2018-02-16T05:58:00.145Z,34.00
2018-02-16T05:59:00.136Z,39.20
2018-02-16T06:00:00.166Z,29.00
2018-02-16T06:01:00.125Z,27.60
2018-02-16T06:02:00.119Z,30.60
2018-02-16T06:03:00.105Z,27.00
2018-02-16T06:04:00.143Z,25.50
2018-02-16T06:05:00.107Z,27.90
2018-02-16T06:06:00.310Z,30.30
2018-02-16T06:07:00.123Z,26.80
2018-02-16T06:08:00.080Z,24.50
2018-02-16T06:09:00.123Z,24.60
2018-02-16T06:10:00.079Z,29.40
2018-02-16T06:11:00.075Z,30.30
2018-02-16T06:12:00.069Z,32.30
2018-02-16T06:13:00.062Z,35.00
2018-02-16T06:14:00.095Z,33.10
2018-02-16T06:15:00.057Z,32.80
2018-02-16T06:16:00.097Z,31.70
2018-02-16T06:17:00.036Z,31.10
2018-02-16T06:18:00.040Z,36.00
2018-02-16T06:19:00.800Z,32.70
2018-02-16T06:20:00.020Z,35.50
2018-02-16T06:21:00.027Z,37.30
2018-02-16T06:22:00.010Z,35.10
2018-02-16T06:23:00.013Z,41.20
2018-02-16T06:24:00.053Z,39.60
2018-02-16T06:24:59.993Z,43.30
2018-02-16T06:25:59.997Z,40.30
2018-02-16T06:26:59.991Z,37.10
2018-02-16T06:28:00.037Z,41.20
2018-02-16T06:28:59.984Z,41.50
2018-02-16T06:29:59.965Z,38.90
2018-02-16T06:30:59.991Z,45.30
2018-02-16T06:31:59.964Z,47.80
2018-02-16T06:33:00.002Z,45.10
2018-02-16T06:33:59.946Z,51.60
2018-02-16T06:34:59.947Z,85.00
2018-02-16T06:36:00.199Z,85.00
2018-02-16T06:36:59.937Z,50.40
2018-02-16T06:37:59.977Z,55.90
2018-02-16T06:38:59.917Z,45.00
2018-02-16T06:39:59.953Z,53.10
2018-02-16T06:40:59.905Z,52.60
2018-02-16T06:41:59.909Z,46.20
2018-02-16T06:42:59.905Z,40.40
2018-02-16T06:43:59.936Z,47.50
2018-02-16T06:44:59.940Z,46.30
2018-02-16T06:45:59.888Z,51.00
2018-02-16T06:46:59.873Z,46.60
2018-02-16T06:48:00.622Z,46.80
2018-02-16T06:48:59.873Z,49.30
2018-02-16T06:49:59.904Z,45.00
2018-02-16T06:50:59.854Z,48.00
2018-02-16T06:51:59.845Z,43.40
2018-02-16T06:52:59.849Z,46.40
2018-02-16T06:53:59.852Z,54.60
2018-02-16T06:54:59.873Z,50.50
2018-02-16T06:55:59.824Z,61.60
2018-02-16T06:56:59.823Z,51.30
2018-02-16T06:57:59.820Z,46.90
2018-02-16T06:58:59.822Z,54.90
2018-02-16T06:59:59.900Z,47.70
2018-02-16T07:00:59.804Z,53.40
2018-02-16T07:01:59.790Z,52.40
2018-02-16T07:02:59.797Z,53.70
2018-02-16T07:03:59.849Z,53.30
2018-02-16T07:04:59.775Z,59.80
2018-02-16T07:05:59.780Z,54.20
2018-02-16T07:06:59.772Z,51.70
2018-02-16T07:07:59.767Z,52.90
2018-02-16T07:08:59.753Z,62.30
2018-02-16T07:09:59.783Z,52.00
2018-02-16T07:10:59.797Z,51.10
2018-02-16T07:11:59.734Z,59.00
2018-02-16T07:13:00.568Z,48.40
2018-02-16T07:13:59.725Z,51.10
2018-02-16T07:14:59.771Z,51.60
2018-02-16T07:15:59.724Z,49.60
2018-02-16T07:16:59.746Z,51.20
2018-02-16T07:17:59.708Z,52.20
2018-02-16T07:18:59.695Z,39.50
2018-02-16T07:19:59.691Z,44.10
2018-02-16T07:20:59.693Z,41.80
2018-02-16T07:21:59.735Z,43.60
2018-02-16T07:22:59.686Z,46.30
2018-02-16T07:23:59.682Z,45.60
2018-02-16T07:24:59.674Z,46.10
2018-02-16T07:25:59.714Z,36.90
2018-02-16T07:26:59.679Z,38.30
2018-02-16T07:27:59.710Z,36.40
2018-02-16T07:28:59.655Z,37.40
2018-02-16T07:29:59.665Z,35.20
2018-02-16T07:30:59.654Z,38.80
2018-02-16T07:31:59.644Z,43.10
2018-02-16T07:32:59.686Z,35.20
2018-02-16T07:33:59.726Z,34.10
2018-02-16T07:34:59.642Z,46.00
2018-02-16T07:35:59.637Z,84.50
2018-02-16T07:36:59.639Z,68.90
2018-02-16T07:37:59.663Z,39.80
2018-02-16T07:38:59.632Z,52.80
2018-02-16T07:39:59.623Z,47.20
2018-02-16T07:40:59.620Z,48.00
2018-02-16T07:41:59.629Z,37.50
2018-02-16T07:42:59.675Z,32.50
2018-02-16T07:43:59.616Z,30.20
2018-02-16T07:45:00.506Z,35.60
2018-02-16T07:45:59.653Z,57.50
2018-02-16T07:46:59.618Z,79.20
2018-02-16T07:47:59.613Z,67.80
2018-02-16T07:48:59.651Z,50.40
2018-02-16T07:49:59.615Z,43.00
2018-02-16T07:50:59.621Z,39.60
2018-02-16T07:51:59.623Z,28.20
2018-02-16T07:52:59.613Z,30.50
2018-02-16T07:53:59.665Z,26.30
2018-02-16T07:54:59.619Z,24.90
2018-02-16T07:55:59.621Z,24.10
2018-02-16T07:56:59.623Z,21.80
2018-02-16T07:57:59.620Z,23.70
2018-02-16T07:58:59.679Z,19.90
2018-02-16T07:59:59.659Z,19.20
2018-02-16T08:00:59.629Z,20.20
2018-02-16T08:01:59.620Z,21.90
2018-02-16T08:02:59.632Z,19.00
2018-02-16T08:03:59.633Z,24.30
2018-02-16T08:04:59.679Z,26.40
2018-02-16T08:05:59.632Z,21.20
2018-02-16T08:06:59.636Z,20.80
2018-02-16T08:07:59.633Z,20.20
2018-02-16T08:08:59.636Z,19.50
2018-02-16T08:09:59.686Z,28.50
2018-02-16T08:10:59.651Z,27.10
2018-02-16T08:11:59.651Z,23.00
2018-02-16T08:12:59.646Z,24.50
2018-02-16T08:13:59.659Z,22.50
2018-02-16T08:14:59.740Z,23.50
2018-02-16T08:15:59.655Z,23.00
2018-02-16T08:16:59.660Z,22.20
2018-02-16T08:17:59.675Z,18.90
2018-02-16T08:18:59.680Z,18.00
2018-02-16T08:19:59.713Z,16.80
2018-02-16T08:20:59.676Z,16.00
2018-02-16T08:21:59.687Z,16.20
2018-02-16T08:22:59.683Z,15.20
2018-02-16T08:23:59.697Z,15.80
2018-02-16T08:24:59.728Z,14.90
2018-02-16T08:25:59.703Z,14.70
2018-02-16T08:26:59.701Z,15.30
2018-02-16T08:27:59.717Z,14.30
2018-02-16T08:28:59.719Z,13.70
2018-02-16T08:29:59.762Z,14.50
2018-02-16T08:30:59.720Z,15.70
2018-02-16T08:31:59.723Z,15.50
2018-02-16T08:32:59.728Z,12.40
2018-02-16T08:33:59.735Z,14.50
2018-02-16T08:34:59.790Z,13.40
2018-02-16T08:35:59.787Z,13.40
2018-02-16T08:36:59.759Z,13.70
2018-02-16T08:37:59.764Z,12.20
2018-02-16T08:38:59.761Z,12.60
2018-02-16T08:39:59.763Z,14.80
2018-02-16T08:40:59.821Z,13.80
2018-02-16T08:41:59.777Z,12.10
2018-02-16T08:42:59.782Z,12.40
2018-02-16T08:43:59.799Z,11.90
2018-02-16T08:44:59.805Z,14.20
2018-02-16T08:45:59.859Z,12.30
2018-02-16T08:46:59.817Z,13.50
2018-02-16T08:47:59.811Z,13.70
2018-02-16T08:48:59.826Z,12.30
2018-02-16T08:49:59.877Z,12.50
2018-02-16T08:50:59.831Z,10.40
2018-02-16T08:51:59.885Z,14.60
2018-02-16T08:52:59.854Z,14.70
2018-02-16T08:53:59.867Z,12.40
2018-02-16T08:54:59.868Z,14.10
2018-02-16T08:55:59.875Z,13.10
2018-02-16T08:56:59.913Z,12.80
2018-02-16T08:57:59.888Z,15.80
2018-02-16T08:58:59.883Z,11.10
2018-02-16T08:59:59.901Z,12.10
2018-02-16T09:00:59.909Z,17.00
2018-02-16T09:01:59.952Z,11.80
2018-02-16T09:02:59.912Z,15.80
2018-02-16T09:03:59.919Z,14.90
2018-02-16T09:04:59.934Z,13.90
2018-02-16T09:05:59.944Z,12.20
2018-02-16T09:06:59.995Z,16.10
2018-02-16T09:07:59.980Z,11.30
2018-02-16T09:08:59.953Z,11.70
2018-02-16T09:10:00.000Z,11.90
2018-02-16T09:10:59.977Z,13.70
2018-02-16T09:11:59.977Z,13.70
2018-02-16T09:13:00.043Z,29.20
2018-02-16T09:14:00.005Z,17.20
2018-02-16T09:15:00.047Z,13.70
2018-02-16T09:16:00.037Z,12.60
2018-02-16T09:17:00.028Z,15.70
2018-02-16T09:18:00.055Z,10.70
2018-02-16T09:19:00.081Z,14.80
2018-02-16T09:20:00.048Z,15.40
2018-02-16T09:21:00.047Z,13.60
2018-02-16T09:22:00.065Z,11.70
2018-02-16T09:23:00.075Z,10.30
2018-02-16T09:24:00.123Z,13.20
2018-02-16T09:25:00.100Z,9.80
2018-02-16T09:26:00.088Z,10.50
2018-02-16T09:27:00.116Z,11.00
2018-02-16T09:28:00.131Z,11.60
2018-02-16T09:29:00.159Z,10.00
2018-02-16T09:30:00.181Z,12.10
2018-02-16T09:31:00.144Z,11.50
2018-02-16T09:32:00.151Z,13.10
2018-02-16T09:33:00.164Z,11.20
2018-02-16T09:34:00.171Z,14.10
2018-02-16T09:35:00.333Z,16.10
2018-02-16T09:36:00.238Z,16.70
2018-02-16T09:37:00.192Z,13.90
2018-02-16T09:38:00.208Z,15.70
2018-02-16T09:39:00.219Z,14.60
2018-02-16T09:40:01.103Z,12.10
2018-02-16T09:41:00.272Z,13.10
2018-02-16T09:42:00.236Z,11.40
2018-02-16T09:43:00.247Z,12.10
2018-02-16T09:44:00.265Z,10.80
2018-02-16T09:45:01.177Z,10.30
2018-02-16T09:46:00.329Z,11.40
2018-02-16T09:47:00.296Z,11.40
2018-02-16T09:48:00.378Z,12.60
2018-02-16T09:49:00.304Z,12.60
2018-02-16T09:50:00.325Z,10.60
2018-02-16T09:51:00.916Z,13.40
2018-02-16T09:52:00.768Z,13.50
2018-02-16T09:53:00.530Z,14.10
2018-02-16T09:54:00.370Z,11.10
2018-02-16T09:55:00.408Z,10.60
2018-02-16T09:56:00.422Z,11.90
2018-02-16T09:57:00.389Z,14.00
2018-02-16T09:58:01.692Z,11.50
2018-02-16T09:59:00.698Z,12.80
2018-02-16T10:00:00.433Z,10.60
2018-02-16T10:01:00.483Z,11.30
2018-02-16T10:02:00.456Z,10.80
2018-02-16T10:03:00.456Z,10.20
2018-02-16T10:04:00.473Z,11.50
2018-02-16T10:05:00.529Z,14.30
2018-02-16T10:06:00.491Z,13.10
2018-02-16T10:07:00.500Z,12.00
2018-02-16T10:08:00.726Z,10.60
2018-02-16T10:09:01.276Z,12.80
2018-02-16T10:10:00.990Z,11.60
2018-02-16T10:11:00.891Z,12.50
2018-02-16T10:13:40.199Z,12.80
2018-02-16T10:14:40.140Z,12.30
2018-02-16T10:15:40.207Z,11.80
2018-02-16T10:16:40.180Z,14.40
2018-02-16T10:17:41.742Z,12.90
2018-02-16T10:18:42.199Z,13.40
2018-02-16T10:19:40.226Z,11.00
2018-02-16T10:20:40.271Z,12.10
2018-02-16T10:21:40.231Z,12.70
2018-02-16T10:22:40.236Z,13.20
2018-02-16T10:23:40.244Z,11.10
2018-02-16T10:24:40.573Z,11.40
2018-02-16T10:25:40.321Z,5.20
2018-02-16T10:26:40.283Z,6.80
2018-02-16T10:27:40.301Z,7.80
2018-02-16T10:28:40.304Z,5.50
2018-02-16T10:29:40.353Z,6.90
2018-02-16T10:30:40.339Z,5.70
2018-02-16T10:31:40.337Z,5.50
2018-02-16T10:32:41.192Z,6.20
2018-02-16T10:33:40.398Z,5.70
2018-02-16T10:34:42.193Z,6.20
2018-02-16T10:35:41.256Z,7.00
2018-02-16T10:36:40.540Z,9.20
2018-02-16T10:37:40.414Z,10.00
2018-02-16T10:38:40.416Z,11.60
2018-02-16T10:39:40.466Z,12.30
2018-02-16T10:40:40.448Z,19.30
2018-02-16T10:41:40.461Z,16.30
2018-02-16T10:42:40.464Z,18.50
2018-02-16T10:43:40.486Z,25.70
2018-02-16T10:44:40.539Z,26.00
2018-02-16T10:45:40.513Z,14.90
2018-02-16T10:46:41.257Z,25.20
2018-02-16T10:47:40.634Z,20.00
2018-02-16T10:48:40.769Z,22.40
2018-02-16T10:49:40.601Z,21.10
2018-02-16T10:50:40.558Z,29.30
2018-02-16T10:51:40.573Z,13.60
2018-02-16T10:52:40.597Z,7.90
2018-02-16T10:53:45.356Z,7.70
2018-02-16T10:54:40.777Z,5.10
2018-02-16T10:55:40.629Z,5.50
2018-02-16T10:56:40.632Z,5.50
2018-02-16T10:57:40.646Z,5.70
2018-02-16T10:58:40.654Z,5.30
2018-02-16T10:59:40.709Z,6.50
2018-02-16T11:00:40.687Z,4.80
2018-02-16T11:01:40.701Z,2.70
2018-02-16T11:02:40.703Z,5.00
2018-02-16T11:03:40.718Z,6.50
2018-02-16T11:04:40.765Z,9.10
2018-02-16T11:05:40.739Z,3.90
2018-02-16T11:06:40.767Z,7.00
2018-02-16T11:07:40.763Z,6.70
2018-02-16T11:08:40.787Z,4.80
2018-02-16T11:09:40.828Z,7.40
2018-02-16T11:10:40.807Z,6.70
2018-02-16T11:11:40.820Z,6.80
2018-02-16T11:12:40.832Z,6.10
2018-02-16T11:13:40.837Z,7.00
2018-02-16T11:14:40.902Z,7.10
2018-02-16T11:15:40.914Z,6.30
2018-02-16T11:16:40.886Z,6.20
2018-02-16T11:17:40.899Z,5.50
2018-02-16T11:18:40.900Z,5.80
2018-02-16T11:19:40.959Z,4.30
2018-02-16T11:20:40.966Z,5.90
2018-02-16T11:21:40.947Z,5.00
2018-02-16T11:22:40.966Z,5.60
2018-02-16T11:23:40.978Z,4.80
2018-02-16T11:24:41.027Z,5.70
2018-02-16T11:25:41.036Z,6.60
2018-02-16T11:26:41.006Z,7.00
2018-02-16T11:27:41.026Z,5.00
2018-02-16T11:28:41.039Z,6.40
2018-02-16T11:29:41.087Z,5.50
2018-02-16T11:30:41.107Z,9.30
2018-02-16T11:31:41.072Z,4.90
2018-02-16T11:32:41.093Z,5.20
2018-02-16T11:33:41.108Z,5.10
2018-02-16T11:34:41.109Z,5.70
2018-02-16T11:35:41.179Z,5.00
2018-02-16T11:36:41.147Z,5.50
2018-02-16T11:37:41.160Z,7.10
2018-02-16T11:38:41.174Z,4.90
2018-02-16T11:39:41.186Z,3.90
2018-02-16T11:40:41.230Z,5.80
2018-02-16T11:41:41.253Z,6.80
2018-02-16T11:42:41.231Z,3.90
2018-02-16T11:43:41.236Z,2.50
2018-02-16T11:44:41.242Z,3.30
2018-02-16T11:45:41.291Z,6.80
2018-02-16T11:46:41.264Z,4.40
2018-02-16T11:47:41.284Z,3.80
2018-02-16T11:48:41.285Z,5.10
2018-02-16T11:49:41.298Z,5.20
2018-02-16T11:50:41.358Z,2.80
2018-02-16T11:51:41.315Z,4.10
2018-02-16T11:52:41.328Z,5.90
2018-02-16T11:53:41.349Z,7.00
2018-02-16T11:54:41.340Z,4.20
2018-02-16T11:55:41.385Z,3.60
2018-02-16T11:56:41.365Z,2.20
2018-02-16T11:57:41.358Z,4.10
2018-02-16T11:58:41.385Z,4.30
2018-02-16T11:59:41.385Z,2.50
2018-02-16T12:00:41.426Z,3.00
2018-02-16T12:01:41.386Z,5.80
2018-02-16T12:02:41.388Z,2.70
2018-02-16T12:03:41.406Z,4.40
2018-02-16T12:04:41.407Z,3.00
2018-02-16T12:05:41.453Z,3.00
2018-02-16T12:06:41.422Z,2.00
2018-02-16T12:07:41.430Z,3.50
2018-02-16T12:08:41.416Z,7.90
2018-02-16T12:09:41.458Z,3.20
2018-02-16T12:10:41.433Z,4.10
2018-02-16T12:11:41.466Z,4.10
2018-02-16T12:12:41.428Z,5.10
2018-02-16T12:13:41.432Z,3.30
2018-02-16T12:14:41.440Z,3.40
2018-02-16T12:15:41.441Z,6.00
2018-02-16T12:16:41.484Z,5.20
2018-02-16T12:17:41.441Z,3.40
2018-02-16T12:18:41.447Z,3.00
2018-02-16T12:19:41.445Z,3.20
2018-02-16T12:20:41.488Z,3.30
2018-02-16T12:21:41.451Z,3.60
2018-02-16T12:22:41.485Z,3.50
2018-02-16T12:23:41.448Z,6.60
2018-02-16T12:24:41.461Z,3.70
2018-02-16T12:25:41.462Z,6.10
2018-02-16T12:26:41.461Z,6.40
2018-02-16T12:27:41.502Z,5.10
2018-02-16T12:28:41.452Z,3.30
2018-02-16T12:29:41.450Z,4.80
2018-02-16T12:30:41.470Z,4.70
2018-02-16T12:31:41.455Z,3.20
2018-02-16T12:32:41.509Z,3.40
2018-02-16T12:33:41.454Z,3.90
2018-02-16T12:34:41.456Z,3.80
2018-02-16T12:35:42.366Z,3.10
2018-02-16T12:36:41.468Z,5.80
2018-02-16T12:37:41.504Z,3.00
2018-02-16T12:38:41.467Z,5.70
2018-02-16T12:39:41.474Z,8.90
2018-02-16T12:40:41.517Z,9.90
2018-02-16T12:41:41.457Z,6.20
2018-02-16T12:42:41.463Z,6.60
2018-02-16T12:43:41.461Z,9.30
2018-02-16T12:44:41.513Z,7.10
2018-02-16T12:45:41.469Z,3.00
2018-02-16T12:46:41.469Z,6.20
2018-02-16T12:47:41.472Z,6.80
2018-02-16T12:48:41.503Z,5.90
2018-02-16T12:49:41.461Z,4.10
2018-02-16T12:50:41.463Z,7.10
2018-02-16T12:51:41.461Z,5.30
2018-02-16T12:52:41.461Z,6.00
2018-02-16T12:53:41.503Z,6.00
2018-02-16T12:54:41.516Z,10.30
2018-02-16T12:55:41.478Z,8.80
2018-02-16T12:56:41.459Z,8.80
2018-02-16T12:57:41.457Z,9.80
2018-02-16T12:58:41.504Z,7.70